createdAt,value
2023-03-17T00:01:30.240Z,0.93
2023-03-17T00:03:58.688Z,1.70
2023-03-17T00:06:29.207Z,1.03
2023-03-17T00:08:56.072Z,1.87
2023-03-17T00:11:22.463Z,0.43
2023-03-17T00:13:48.967Z,1.80
2023-03-17T00:16:22.036Z,1.00
2023-03-17T00:18:50.106Z,0.70
2023-03-17T00:21:22.952Z,1.53
2023-03-17T00:23:51.755Z,0.70
2023-03-17T00:26:20.259Z,1.53
2023-03-17T00:28:47.208Z,1.80
2023-03-17T00:31:23.661Z,1.17
2023-03-17T00:33:52.746Z,1.87
2023-03-17T00:36:22.585Z,1.00
2023-03-17T00:38:49.615Z,0.97
2023-03-17T00:41:16.168Z,2.53
2023-03-17T00:43:42.952Z,1.00
2023-03-17T00:46:14.616Z,1.37
2023-03-17T00:48:43.454Z,2.23
2023-03-17T00:51:10.031Z,1.80
2023-03-17T00:53:36.453Z,1.23
2023-03-17T00:56:02.980Z,1.17
2023-03-17T00:58:34.359Z,0.60
2023-03-17T01:01:01.581Z,1.00
2023-03-17T01:03:28.660Z,1.23
2023-03-17T01:05:57.727Z,2.97
2023-03-17T01:08:25.712Z,1.43
2023-03-17T01:10:52.590Z,1.10
2023-03-17T01:13:19.138Z,1.30
2023-03-17T01:15:47.832Z,1.43
2023-03-17T01:18:16.782Z,2.13
2023-03-17T01:20:43.843Z,2.37
2023-03-17T01:23:12.176Z,1.53
2023-03-17T01:25:41.410Z,1.23
2023-03-17T01:28:08.360Z,2.70
2023-03-17T01:30:38.520Z,1.87
2023-03-17T01:33:09.750Z,1.50
2023-03-17T01:35:38.171Z,1.03
2023-03-17T01:38:05.553Z,2.00
2023-03-17T01:40:38.844Z,0.50
2023-03-17T01:43:10.900Z,1.67
2023-03-17T01:46:14.728Z,0.77
2023-03-17T01:48:45.512Z,1.40
2023-03-17T01:51:18.522Z,0.97
2023-03-17T01:53:48.163Z,1.20
2023-03-17T01:56:15.504Z,0.90
2023-03-17T01:58:42.038Z,2.10
2023-03-17T02:01:08.566Z,1.40
2023-03-17T02:03:35.001Z,0.83
2023-03-17T02:06:02.305Z,0.80
2023-03-17T02:08:28.692Z,1.40
2023-03-17T02:10:57.203Z,1.83
2023-03-17T02:13:24.158Z,1.23
2023-03-17T02:15:52.221Z,1.73
2023-03-17T02:18:21.717Z,0.77
2023-03-17T02:20:48.004Z,1.53
2023-03-17T02:23:24.096Z,2.43
2023-03-17T02:25:52.421Z,0.90
2023-03-17T02:28:25.950Z,1.33
2023-03-17T02:30:52.741Z,1.40
2023-03-17T02:33:19.244Z,1.40
2023-03-17T02:35:46.152Z,1.23
2023-03-17T02:38:12.595Z,1.07
2023-03-17T02:40:39.012Z,1.73
2023-03-17T02:43:05.635Z,1.70
2023-03-17T02:45:32.196Z,0.70
2023-03-17T02:47:59.284Z,0.80
2023-03-17T02:50:28.904Z,0.70
2023-03-17T02:52:55.970Z,0.93
2023-03-17T02:55:22.347Z,0.50
2023-03-17T02:57:48.725Z,1.10
2023-03-17T03:00:15.463Z,1.10
2023-03-17T03:02:42.484Z,0.97
2023-03-17T03:05:09.522Z,1.47
2023-03-17T03:07:36.333Z,1.00
2023-03-17T03:10:02.911Z,1.77
2023-03-17T03:12:29.263Z,0.67
2023-03-17T03:14:55.657Z,0.87
2023-03-17T03:17:22.174Z,0.40
2023-03-17T03:19:49.629Z,1.67
2023-03-17T03:22:16.143Z,0.73
2023-03-17T03:24:42.600Z,0.93
2023-03-17T03:27:09.048Z,1.97
2023-03-17T03:29:36.262Z,0.53
2023-03-17T03:32:02.692Z,0.50
2023-03-17T03:34:29.222Z,1.00
2023-03-17T03:36:55.986Z,0.70
2023-03-17T03:39:22.402Z,0.80
2023-03-17T03:41:48.799Z,0.50
2023-03-17T03:44:15.404Z,1.10
2023-03-17T03:46:41.814Z,0.87
2023-03-17T03:49:08.559Z,0.70
2023-03-17T03:51:34.931Z,1.23
2023-03-17T03:54:01.406Z,0.30
2023-03-17T03:56:27.819Z,1.77
2023-03-17T03:58:54.272Z,0.97
2023-03-17T04:01:20.607Z,0.57
2023-03-17T04:03:47.390Z,0.80
2023-03-17T04:06:13.843Z,1.50
2023-03-17T04:08:40.239Z,0.93
2023-03-17T04:11:06.570Z,0.80
2023-03-17T04:13:32.908Z,0.30
2023-03-17T04:15:59.347Z,1.20
2023-03-17T04:18:26.238Z,0.30
2023-03-17T04:20:52.866Z,0.30
2023-03-17T04:23:19.255Z,0.80
2023-03-17T04:25:45.838Z,0.50
2023-03-17T04:28:12.251Z,1.27
2023-03-17T04:30:38.710Z,0.77
2023-03-17T04:33:05.140Z,1.30
2023-03-17T04:35:31.985Z,0.30
2023-03-17T04:37:58.477Z,0.53
2023-03-17T04:40:24.883Z,0.73
2023-03-17T04:42:51.319Z,1.20
2023-03-17T04:45:17.824Z,1.47
2023-03-17T04:47:45.952Z,2.13
2023-03-17T04:50:16.771Z,0.73
2023-03-17T04:52:43.525Z,0.97
2023-03-17T04:55:10.286Z,1.07
2023-03-17T04:57:36.948Z,0.23
2023-03-17T05:00:05.970Z,0.97
2023-03-17T05:02:32.532Z,0.90
2023-03-17T05:04:59.050Z,0.40
2023-03-17T05:07:25.542Z,0.90
2023-03-17T05:09:51.945Z,0.97
2023-03-17T05:12:18.446Z,1.27
2023-03-17T05:14:44.802Z,0.30
2023-03-17T05:17:11.363Z,0.30
2023-03-17T05:19:38.035Z,1.00
2023-03-17T05:22:04.735Z,0.70
2023-03-17T05:24:31.154Z,0.50
2023-03-17T05:26:57.627Z,0.80
2023-03-17T05:29:24.065Z,1.10
2023-03-17T05:31:50.483Z,1.63
2023-03-17T05:34:17.463Z,1.07
2023-03-17T05:36:44.609Z,0.80
2023-03-17T05:39:12.309Z,1.17
2023-03-17T05:41:40.458Z,2.53
2023-03-17T05:44:07.019Z,2.00
2023-03-17T05:46:33.451Z,0.50
2023-03-17T05:48:59.872Z,0.73
2023-03-17T05:51:27.538Z,0.40
2023-03-17T05:53:57.789Z,0.53
2023-03-17T05:56:24.914Z,1.37
2023-03-17T05:58:51.557Z,1.50
2023-03-17T06:01:17.998Z,4.20
2023-03-17T06:03:44.531Z,0.77
2023-03-17T06:06:11.017Z,1.47
2023-03-17T06:08:37.454Z,0.87
2023-03-17T06:11:03.926Z,1.80
2023-03-17T06:13:30.353Z,0.60
2023-03-17T06:15:57.574Z,2.43
2023-03-17T06:18:24.038Z,0.90
2023-03-17T06:20:50.676Z,0.70
2023-03-17T06:23:17.282Z,1.73
2023-03-17T06:25:43.624Z,0.63
2023-03-17T06:28:10.259Z,2.00
2023-03-17T06:30:40.524Z,3.07
2023-03-17T06:33:08.115Z,1.27
2023-03-17T06:35:35.149Z,1.13
2023-03-17T06:38:02.152Z,0.83
2023-03-17T06:40:28.946Z,1.70
2023-03-17T06:42:55.399Z,0.60
2023-03-17T06:45:21.895Z,1.07
2023-03-17T06:47:48.313Z,1.17
2023-03-17T06:50:14.749Z,1.67
2023-03-17T06:52:41.309Z,1.37
2023-03-17T06:55:08.565Z,1.07
2023-03-17T06:57:36.319Z,0.90
2023-03-17T07:00:06.296Z,1.80
2023-03-17T07:02:33.701Z,0.77
2023-03-17T07:05:00.781Z,2.43
2023-03-17T07:07:27.911Z,3.43
2023-03-17T07:09:54.304Z,1.90
2023-03-17T07:12:21.803Z,2.00
2023-03-17T07:14:48.226Z,1.60
2023-03-17T07:17:15.224Z,1.53
2023-03-17T07:19:42.353Z,1.93
2023-03-17T07:22:11.810Z,2.73
2023-03-17T07:24:38.593Z,1.60
2023-03-17T07:27:05.102Z,2.83
2023-03-17T07:29:33.747Z,1.23
2023-03-17T07:32:01.183Z,1.03
2023-03-17T07:34:28.205Z,1.77
2023-03-17T07:36:54.653Z,1.70
2023-03-17T07:39:21.510Z,1.13
2023-03-17T07:41:52.893Z,2.00
2023-03-17T07:44:19.746Z,1.43
2023-03-17T07:46:46.399Z,3.30
2023-03-17T07:49:13.248Z,3.17
2023-03-17T07:51:42.955Z,1.70
2023-03-17T07:54:10.608Z,3.37
2023-03-17T07:56:37.016Z,3.07
2023-03-17T07:59:03.771Z,1.50
2023-03-17T08:01:30.620Z,2.40
2023-03-17T08:03:57.095Z,1.90
2023-03-17T08:06:25.386Z,1.90
2023-03-17T08:08:52.953Z,3.00
2023-03-17T08:11:20.136Z,2.40
2023-03-17T08:13:47.553Z,3.10
2023-03-17T08:16:14.095Z,3.37
2023-03-17T08:18:40.609Z,2.33
2023-03-17T08:21:07.485Z,2.83
2023-03-17T08:23:33.921Z,2.93
2023-03-17T08:26:01.962Z,2.20
2023-03-17T08:28:29.149Z,2.53
2023-03-17T08:31:08.078Z,3.43
2023-03-17T08:33:35.747Z,2.70
2023-03-17T08:36:05.977Z,2.20
2023-03-17T08:38:33.279Z,2.67
2023-03-17T08:41:02.483Z,1.57
2023-03-17T08:43:29.157Z,1.83
2023-03-17T08:46:04.147Z,3.03
2023-03-17T08:48:31.889Z,2.70
2023-03-17T08:50:58.612Z,2.60
2023-03-17T08:53:25.993Z,2.40
2023-03-17T08:55:55.105Z,1.90
2023-03-17T08:58:21.562Z,1.40
2023-03-17T09:00:49.345Z,2.40
2023-03-17T09:03:16.275Z,2.93
2023-03-17T09:05:44.056Z,1.60
2023-03-17T09:08:11.941Z,3.07
2023-03-17T09:10:38.569Z,2.63
2023-03-17T09:13:05.322Z,2.33
2023-03-17T09:15:34.221Z,3.53
2023-03-17T09:18:01.767Z,3.17
2023-03-17T09:20:28.199Z,2.97
2023-03-17T09:22:54.572Z,2.30
2023-03-17T09:25:21.276Z,2.57
2023-03-17T09:27:47.738Z,3.03
2023-03-17T09:30:14.501Z,3.13
2023-03-17T09:32:41.037Z,2.83
2023-03-17T09:35:07.897Z,2.57
2023-03-17T09:37:37.246Z,2.83
2023-03-17T09:40:08.264Z,2.60
2023-03-17T09:42:56.051Z,2.50
2023-03-17T09:45:33.462Z,2.77
2023-03-17T09:48:27.828Z,2.77
2023-03-17T09:50:58.899Z,2.60
2023-03-17T09:53:33.954Z,2.90
2023-03-17T09:56:07.005Z,2.30
2023-03-17T09:58:34.998Z,2.23
2023-03-17T10:01:05.199Z,3.13
2023-03-17T10:03:32.791Z,2.20
2023-03-17T10:06:15.431Z,1.90
2023-03-17T10:08:51.192Z,2.90
2023-03-17T10:11:22.807Z,2.70
2023-03-17T10:13:54.927Z,2.13
2023-03-17T10:16:26.900Z,3.33
2023-03-17T10:18:58.597Z,2.27
2023-03-17T10:21:28.894Z,1.83
2023-03-17T10:23:57.661Z,2.00
2023-03-17T10:26:33.014Z,2.10
2023-03-17T10:29:03.976Z,1.53
2023-03-17T10:31:34.579Z,3.43
2023-03-17T10:34:13.277Z,2.80
2023-03-17T10:36:44.411Z,3.30
2023-03-17T10:39:14.804Z,3.07
2023-03-17T10:41:54.253Z,1.60
2023-03-17T10:44:28.317Z,2.33
2023-03-17T10:46:56.993Z,2.77
2023-03-17T10:49:24.452Z,2.20
2023-03-17T10:51:55.648Z,2.30
2023-03-17T10:54:25.637Z,2.70
2023-03-17T10:57:01.715Z,2.67
2023-03-17T10:59:37.452Z,2.97
2023-03-17T11:02:20.238Z,2.57
2023-03-17T11:04:46.993Z,2.17
2023-03-17T11:07:21.944Z,3.70
2023-03-17T11:09:50.791Z,2.90
2023-03-17T11:12:34.747Z,1.80
2023-03-17T11:15:04.016Z,3.20
2023-03-17T11:17:51.436Z,3.27
2023-03-17T11:20:39.714Z,4.37
2023-03-17T11:23:23.597Z,2.50
2023-03-17T11:26:01.739Z,3.00
2023-03-17T11:28:33.469Z,2.43
2023-03-17T11:31:09.330Z,3.33
2023-03-17T11:33:59.192Z,2.57
2023-03-17T11:36:38.030Z,4.00
2023-03-17T11:39:20.712Z,2.30
2023-03-17T11:42:12.103Z,3.40
2023-03-17T11:44:55.152Z,1.90
2023-03-17T11:47:24.601Z,3.50
2023-03-17T11:50:07.511Z,4.50
2023-03-17T11:53:04.606Z,2.67
2023-03-17T11:55:56.127Z,2.20
2023-03-17T11:58:33.467Z,2.77
2023-03-17T12:01:02.232Z,4.00
2023-03-17T12:03:45.926Z,3.17
2023-03-17T12:06:17.983Z,2.80
2023-03-17T12:08:57.561Z,3.13
2023-03-17T12:11:28.867Z,3.10
2023-03-17T12:14:02.219Z,4.00
2023-03-17T12:16:38.307Z,3.17
2023-03-17T12:19:16.407Z,3.50
2023-03-17T12:22:06.794Z,3.53
2023-03-17T12:24:40.804Z,3.70
2023-03-17T12:27:24.581Z,3.67
2023-03-17T12:30:06.499Z,2.83
2023-03-17T12:32:44.039Z,2.60
2023-03-17T12:35:24.432Z,3.30
2023-03-17T12:37:51.003Z,4.73
2023-03-17T12:40:24.067Z,4.33
2023-03-17T12:43:13.634Z,4.23
2023-03-17T12:45:46.519Z,4.87
2023-03-17T12:48:39.183Z,3.10
2023-03-17T12:51:17.898Z,3.90
2023-03-17T12:53:48.204Z,2.80
2023-03-17T12:56:23.796Z,2.40
2023-03-17T12:58:52.175Z,2.90
2023-03-17T13:01:32.008Z,2.80
2023-03-17T13:04:36.535Z,2.77
2023-03-17T13:07:09.809Z,2.57
2023-03-17T13:09:54.572Z,1.90
2023-03-17T13:12:42.618Z,2.60
2023-03-17T13:15:38.070Z,2.10
2023-03-17T13:18:16.582Z,3.43
2023-03-17T13:20:59.280Z,3.70
2023-03-17T13:23:53.058Z,1.70
2023-03-17T13:26:21.920Z,2.00
2023-03-17T13:28:50.981Z,2.17
2023-03-17T13:31:20.254Z,3.00
2023-03-17T13:33:53.247Z,2.60
2023-03-17T13:36:34.765Z,1.80
2023-03-17T13:39:21.372Z,2.60
2023-03-17T13:42:15.653Z,2.50
2023-03-17T13:45:21.826Z,2.67
2023-03-17T13:47:51.086Z,4.63
2023-03-17T13:50:24.869Z,2.27
2023-03-17T13:53:02.665Z,3.33
2023-03-17T13:55:35.105Z,3.00
2023-03-17T13:58:10.601Z,2.43
2023-03-17T14:00:44.334Z,2.30
2023-03-17T14:03:32.517Z,3.17
2023-03-17T14:06:04.555Z,2.00
2023-03-17T14:08:37.235Z,2.17
2023-03-17T14:11:15.846Z,2.67
2023-03-17T14:13:53.593Z,1.83
2023-03-17T14:16:31.989Z,2.03
2023-03-17T14:19:08.375Z,1.47
2023-03-17T14:21:34.813Z,1.37
2023-03-17T14:24:04.460Z,2.03
2023-03-17T14:26:32.214Z,2.00
2023-03-17T14:29:00.525Z,2.27
2023-03-17T14:31:29.585Z,2.23
2023-03-17T14:33:58.670Z,2.23
2023-03-17T14:36:27.517Z,1.90
2023-03-17T14:38:56.488Z,1.50
2023-03-17T14:41:25.516Z,2.23
2023-03-17T14:43:54.378Z,2.10
2023-03-17T14:46:25.259Z,2.90
2023-03-17T14:48:58.667Z,2.53
2023-03-17T14:51:36.863Z,2.67
2023-03-17T14:54:10.712Z,2.40
2023-03-17T14:56:40.918Z,1.77
2023-03-17T14:59:28.986Z,2.73
2023-03-17T15:02:01.865Z,3.30
2023-03-17T15:04:33.822Z,1.90
2023-03-17T15:07:03.684Z,1.43
2023-03-17T15:09:40.520Z,2.50
2023-03-17T15:12:21.743Z,2.10
2023-03-17T15:14:51.832Z,2.20
2023-03-17T15:17:30.751Z,1.90
2023-03-17T15:20:01.948Z,2.20
2023-03-17T15:22:34.131Z,2.33
2023-03-17T15:25:16.622Z,2.50
2023-03-17T15:27:44.052Z,2.90
2023-03-17T15:30:12.210Z,1.87
2023-03-17T15:32:39.493Z,3.23
2023-03-17T15:35:07.403Z,1.63
2023-03-17T15:37:35.075Z,2.90
2023-03-17T15:40:03.339Z,3.80
2023-03-17T15:42:32.703Z,2.80
2023-03-17T15:45:01.193Z,2.40
2023-03-17T15:47:30.014Z,1.97
2023-03-17T15:49:59.997Z,2.10
2023-03-17T15:52:28.530Z,4.03
2023-03-17T15:54:56.987Z,1.70
2023-03-17T15:57:23.698Z,3.30
2023-03-17T15:59:50.572Z,3.93
2023-03-17T16:02:29.316Z,3.23
2023-03-17T16:04:57.028Z,2.90
2023-03-17T16:07:24.472Z,3.03
2023-03-17T16:09:51.414Z,2.50
2023-03-17T16:12:18.183Z,2.20
2023-03-17T16:14:45.154Z,3.00
2023-03-17T16:17:25.793Z,2.10
2023-03-17T16:19:53.047Z,4.53
2023-03-17T16:22:40.330Z,2.80
2023-03-17T16:25:21.565Z,2.10
2023-03-17T16:27:49.152Z,2.63
2023-03-17T16:30:18.179Z,3.20
2023-03-17T16:32:44.704Z,2.20
2023-03-17T16:35:15.225Z,3.33
2023-03-17T16:37:42.087Z,2.27
2023-03-17T16:40:18.034Z,3.33
2023-03-17T16:42:45.212Z,3.23
2023-03-17T16:45:19.361Z,3.27
2023-03-17T16:47:45.847Z,2.57
2023-03-17T16:50:18.286Z,3.30
2023-03-17T16:52:44.753Z,3.00
2023-03-17T16:55:12.059Z,2.80
2023-03-17T16:57:39.635Z,2.80
2023-03-17T17:00:07.922Z,3.13
2023-03-17T17:02:34.381Z,2.30
2023-03-17T17:05:02.710Z,2.20
2023-03-17T17:07:29.056Z,3.40
2023-03-17T17:09:55.753Z,2.47
2023-03-17T17:12:22.088Z,2.97
2023-03-17T17:14:48.433Z,3.03
2023-03-17T17:17:14.808Z,2.60
2023-03-17T17:19:41.728Z,2.90
2023-03-17T17:22:11.003Z,3.10
2023-03-17T17:24:42.277Z,3.10
2023-03-17T17:27:08.669Z,1.50
2023-03-17T17:29:35.585Z,2.10
2023-03-17T17:32:03.420Z,3.80
2023-03-17T17:34:29.779Z,2.73
2023-03-17T17:36:56.386Z,1.57
2023-03-17T17:39:22.910Z,1.60
2023-03-17T17:41:49.260Z,2.93
2023-03-17T17:44:15.817Z,4.00
2023-03-17T17:46:42.448Z,2.50
2023-03-17T17:49:11.567Z,2.30
2023-03-17T17:51:38.028Z,2.20
2023-03-17T17:54:04.413Z,3.90
2023-03-17T17:56:36.459Z,2.90
2023-03-17T17:59:03.039Z,2.50
2023-03-17T18:01:29.751Z,1.57
2023-03-17T18:03:56.119Z,2.50
2023-03-17T18:06:22.543Z,2.90
2023-03-17T18:08:49.827Z,2.20
2023-03-17T18:11:16.227Z,2.00
2023-03-17T18:13:42.638Z,2.07
2023-03-17T18:16:14.628Z,2.70
2023-03-17T18:18:43.171Z,1.27
2023-03-17T18:21:09.900Z,2.10
2023-03-17T18:23:36.521Z,2.00
2023-03-17T18:26:04.006Z,1.40
2023-03-17T18:28:30.724Z,2.90
2023-03-17T18:31:03.554Z,1.80
2023-03-17T18:33:30.285Z,2.40
2023-03-17T18:35:57.909Z,1.13
2023-03-17T18:38:25.216Z,1.83
2023-03-17T18:40:52.216Z,2.10
2023-03-17T18:43:18.906Z,2.30
2023-03-17T18:45:45.502Z,2.67
2023-03-17T18:48:11.970Z,1.93
2023-03-17T18:50:38.552Z,1.53
2023-03-17T18:53:05.028Z,2.00
2023-03-17T18:55:31.501Z,1.93
2023-03-17T18:57:58.160Z,1.40
2023-03-17T19:00:25.990Z,2.07
2023-03-17T19:02:52.844Z,1.37
2023-03-17T19:05:20.197Z,2.97
2023-03-17T19:07:46.918Z,2.50
2023-03-17T19:10:14.137Z,3.17
2023-03-17T19:12:41.051Z,3.30
2023-03-17T19:15:08.831Z,2.10
2023-03-17T19:17:35.231Z,2.27
2023-03-17T19:20:01.715Z,1.80
2023-03-17T19:22:28.148Z,1.63
2023-03-17T19:24:54.526Z,1.97
2023-03-17T19:27:21.308Z,1.90
2023-03-17T19:29:47.711Z,1.60
2023-03-17T19:32:14.178Z,2.67
2023-03-17T19:34:40.526Z,1.67
2023-03-17T19:37:07.036Z,2.10
2023-03-17T19:39:33.901Z,3.23
2023-03-17T19:42:00.928Z,2.53
2023-03-17T19:44:27.501Z,3.07
2023-03-17T19:46:53.917Z,4.27
2023-03-17T19:49:21.169Z,3.23
2023-03-17T19:51:49.048Z,2.40
2023-03-17T19:54:15.915Z,3.73
2023-03-17T19:56:42.556Z,3.83
2023-03-17T19:59:09.228Z,3.33
2023-03-17T20:01:37.846Z,5.17
2023-03-17T20:04:06.715Z,4.13
2023-03-17T20:06:34.471Z,3.30
2023-03-17T20:09:03.819Z,2.57
2023-03-17T20:11:33.676Z,3.83
2023-03-17T20:14:01.483Z,2.03
2023-03-17T20:16:30.198Z,4.87
2023-03-17T20:18:56.608Z,3.47
2023-03-17T20:21:23.407Z,3.47
2023-03-17T20:23:49.791Z,3.70
2023-03-17T20:26:16.226Z,2.53
2023-03-17T20:28:42.668Z,3.30
2023-03-17T20:31:09.374Z,3.63
2023-03-17T20:33:35.988Z,3.93
2023-03-17T20:36:03.570Z,2.67
2023-03-17T20:38:33.218Z,2.10
2023-03-17T20:41:08.860Z,2.70
2023-03-17T20:43:37.231Z,4.53
2023-03-17T20:46:08.798Z,3.10
2023-03-17T20:48:37.179Z,2.53
2023-03-17T20:51:06.133Z,2.03
2023-03-17T20:53:34.195Z,3.30
2023-03-17T20:56:00.751Z,3.97
2023-03-17T20:58:27.614Z,3.43
2023-03-17T21:00:54.658Z,3.93
2023-03-17T21:03:21.290Z,4.40
2023-03-17T21:05:47.690Z,5.57
2023-03-17T21:08:14.382Z,3.87
2023-03-17T21:10:40.876Z,4.50
2023-03-17T21:13:07.333Z,4.77
2023-03-17T21:15:33.754Z,4.93
2023-03-17T21:18:00.711Z,4.60
2023-03-17T21:20:27.296Z,4.80
2023-03-17T21:22:53.731Z,4.30
2023-03-17T21:25:20.150Z,4.60
2023-03-17T21:27:46.685Z,4.87
2023-03-17T21:30:14.423Z,3.57
2023-03-17T21:32:41.863Z,6.10
2023-03-17T21:35:08.917Z,6.73
2023-03-17T21:37:35.401Z,4.73
2023-03-17T21:40:01.916Z,4.30
2023-03-17T21:42:28.357Z,3.70
2023-03-17T21:44:55.115Z,5.20
2023-03-17T21:47:21.599Z,4.10
2023-03-17T21:49:48.045Z,4.50
2023-03-17T21:52:15.084Z,5.63
2023-03-17T21:54:42.200Z,6.07
2023-03-17T21:57:08.656Z,3.87
2023-03-17T21:59:35.650Z,4.07
2023-03-17T22:02:02.855Z,5.20
2023-03-17T22:04:29.836Z,3.50
2023-03-17T22:06:56.305Z,4.50
2023-03-17T22:09:22.712Z,5.03
2023-03-17T22:11:49.696Z,5.00
2023-03-17T22:14:19.977Z,3.60
2023-03-17T22:16:47.909Z,4.43
2023-03-17T22:19:14.408Z,4.33
2023-03-17T22:21:41.580Z,3.77
2023-03-17T22:24:08.254Z,5.30
2023-03-17T22:26:34.714Z,4.83
2023-03-17T22:29:01.806Z,4.90
2023-03-17T22:31:29.129Z,5.00
2023-03-17T22:33:57.888Z,3.63
2023-03-17T22:36:25.723Z,3.87
2023-03-17T22:38:52.471Z,3.17
2023-03-17T22:41:21.987Z,6.07
2023-03-17T22:43:48.978Z,4.30
2023-03-17T22:46:15.923Z,4.40
2023-03-17T22:48:43.017Z,4.37
2023-03-17T22:51:16.683Z,4.57
2023-03-17T22:53:43.446Z,4.63
2023-03-17T22:56:11.725Z,3.53
2023-03-17T22:58:38.837Z,3.50
2023-03-17T23:01:06.494Z,4.57
2023-03-17T23:03:33.895Z,3.83
2023-03-17T23:06:02.318Z,3.33
2023-03-17T23:08:31.491Z,3.20
2023-03-17T23:11:00.550Z,3.00
2023-03-17T23:13:27.659Z,3.37
2023-03-17T23:15:54.248Z,2.40
2023-03-17T23:18:20.660Z,4.40
2023-03-17T23:20:47.632Z,2.93
2023-03-17T23:23:14.535Z,4.63
2023-03-17T23:25:41.144Z,4.57
2023-03-17T23:28:08.108Z,4.60
2023-03-17T23:30:35.725Z,3.40
2023-03-17T23:33:04.601Z,3.03
2023-03-17T23:35:31.702Z,2.53
2023-03-17T23:37:58.146Z,4.20
2023-03-17T23:40:24.494Z,3.67
2023-03-17T23:42:54.163Z,3.10
2023-03-17T23:45:23.024Z,3.50
2023-03-17T23:47:51.631Z,4.30
2023-03-17T23:50:19.407Z,4.13
2023-03-17T23:52:47.030Z,4.80
2023-03-17T23:55:14.447Z,3.23
2023-03-17T23:57:41.553Z,3.10
